• Join FlightAware (Why Join?)
  • Login
  • US Flag 
01:20PM EST


 

Airport Tracker/Info


-or-


 

Live Flight TrackerFlight Track Log ✈ JBU1 ✈ 29-Apr-2012 ✈ KJFK - KFLL

Flight Track Log - Related Links

Times and Time Zones

All times are in EDT time to prevent confusion due to time zone crossing. See the JBU1 flight status page for this flight to view local times or setup timezone preferences in your user account.

Time Position Orientation Groundspeed Altitude Reporting Facility
EDT Latitude Longitude Course Direction KTS MPH feet Rate Location/Type
11:00AM 40.6199 -73.7533 282° West  Level FlightAware Approximate
11:01AM 40.5276 -73.6719 311° West  Level FlightAware Approximate
11:01AM 40.6333 -73.8333 207° Southwest 166 191 2,100  Level New York TRACON
11:02AM 40.5833 -73.8667 118° Southeast 256 295 3,500 2,280 Climbing New York TRACON
11:03AM 40.5500 -73.7833 125° Southeast 298 343 6,500 2,580 Climbing New York TRACON
11:05AM 40.4547 -73.6050 145° Southeast 326 375 11,200 2,340 Climbing New York Center
11:06AM 40.3631 -73.5194 144° Southeast 374 430 13,600 2,160 Climbing New York Center
11:07AM 40.2692 -73.4286 158° South 419 482 15,600 1,920 Climbing New York Center
11:09AM 40.1006 -73.3378 206° Southwest 415 478 18,600 1,800 Climbing Washington Center
11:10AM 40.0039 -73.4003 221° Southwest 358 412 20,400 1,860 Climbing Washington Center
11:11AM 39.9242 -73.4919 219° Southwest 358 412 22,300 1,260 Climbing Washington Center
11:12AM 39.8403 -73.5811 218° Southwest 382 440 23,000 780 Climbing Washington Center
11:13AM 39.7542 -73.6697 219° Southwest 394 453 23,900 1,260 Climbing Washington Center
11:14AM 39.6661 -73.7611 213° Southwest 405 466 25,500 1,380 Climbing Washington Center
11:15AM 39.5672 -73.8444 212° Southwest 418 481 26,800 1,380 Climbing Washington Center
11:16AM 39.4686 -73.9247 212° Southwest 429 494 28,300 1,260 Climbing Washington Center
11:17AM 39.3675 -74.0078 214° Southwest 429 494 29,300 1,320 Climbing Washington Center
11:18AM 39.2664 -74.0958 212° Southwest 435 501 30,900 1,140 Climbing Washington Center
11:19AM 39.1633 -74.1781 213° Southwest 435 501 31,700 1,200 Climbing Washington Center
11:20AM 39.0642 -74.2603 214° Southwest 435 501 33,400 1,440 Climbing Washington Center
11:21AM 38.9650 -74.3450 211° Southwest 435 501 34,700 1,140 Climbing Washington Center
11:22AM 38.8678 -74.4211 213° Southwest 435 501 35,700 660 Climbing Washington Center
11:23AM 38.7706 -74.5028 209° Southwest 430 495 36,000 120 Climbing Washington Center
11:24AM 38.6669 -74.5761 205° Southwest 430 495 36,000  Level Washington Center
11:25AM 38.5572 -74.6411 205° Southwest 430 495 36,000  Level Washington Center
11:26AM 38.4514 -74.7036 204° Southwest 430 495 36,000  Level Washington Center
11:27AM 38.3558 -74.7578 209° Southwest 424 488 36,000  Level Washington Center
11:28AM 38.2436 -74.8356 204° Southwest 419 482 36,000 -60 Level Washington Center
11:29AM 38.1356 -74.8975 205° Southwest 419 482 35,900  Descending Washington Center
11:30AM 38.0275 -74.9617 204° Southwest 424 488 36,000  Climbing Washington Center
11:31AM 37.9194 -75.0231 205° Southwest 424 488 36,000  Level Washington Center
11:32AM 37.8111 -75.0872 204° Southwest 424 488 36,000  Level Washington Center
11:33AM 37.6989 -75.1508 205° Southwest 424 488 36,000  Level Washington Center
11:34AM 37.5886 -75.2144 205° Southwest 429 494 36,000  Level Washington Center
11:35AM 37.4781 -75.2806 204° Southwest 434 499 36,000  Level Washington Center
11:36AM 37.3678 -75.3436 204° Southwest 440 506 36,000  Level Washington Center
11:37AM 37.2572 -75.4067 204° Southwest 440 506 36,000  Level Washington Center
11:38AM 37.1447 -75.4694 205° Southwest 440 506 36,000  Level Washington Center
11:39AM 37.0342 -75.5347 203° Southwest 440 506 36,000  Level Washington Center
11:40AM 36.9217 -75.5944 204° Southwest 440 506 36,000  Level Washington Center
11:41AM 36.8111 -75.6569 204° Southwest 440 506 36,000  Level Washington Center
11:42AM 36.6983 -75.7189 205° Southwest 440 506 36,000  Level Washington Center
11:43AM 36.6086 -75.7706 205° Southwest 440 506 36,000  Level Washington Center
11:44AM 36.4875 -75.8400 204° Southwest 440 506 36,000  Level Washington Center
11:45AM 36.3747 -75.9017 205° Southwest 440 506 36,000  Level Washington Center
11:46AM 36.2639 -75.9656 204° Southwest 440 506 36,000  Level Washington Center
11:47AM 36.1511 -76.0267 205° Southwest 440 506 36,000  Level Washington Center
11:48AM 36.0403 -76.0903 204° Southwest 440 506 36,000  Level Washington Center
11:49AM 35.9272 -76.1539 203° Southwest 440 506 36,000  Level Washington Center
11:50AM 35.8144 -76.2119 205° Southwest 440 506 36,000  Level Washington Center
11:51AM 35.7014 -76.2775 203° Southwest 440 506 36,000  Level Washington Center
11:52AM 35.5861 -76.3378 203° Southwest 440 506 36,000  Level Washington Center
11:53AM 35.4731 -76.3981 203° Southwest 440 506 36,000  Level Washington Center
11:54AM 35.3600 -76.4581 207° Southwest 440 506 36,000  Level Washington Center
11:55AM 35.2553 -76.5231 204° Southwest 435 501 36,000  Level Washington Center
11:56AM 35.1442 -76.5828 205° Southwest 435 501 36,000  Level Washington Center
11:57AM 35.0372 -76.6447 204° Southwest 440 506 36,000  Level Washington Center
11:58AM 34.9261 -76.7042 204° Southwest 440 506 36,000  Level Washington Center
11:59AM 34.8169 -76.7633 203° Southwest 440 506 36,000  Level Washington Center
12:00PM 34.7039 -76.8225 203° Southwest 440 506 36,000  Level Washington Center
12:01PM 34.5947 -76.8789 204° Southwest 440 506 36,000  Level Washington Center
12:02PM 34.4836 -76.9375 205° Southwest 440 506 36,000  Level Washington Center
12:03PM 34.3742 -76.9986 202° Southwest 440 506 36,000  Level Washington Center
12:04PM 34.2653 -77.0519 204° Southwest 440 506 36,000  Level Washington Center
12:05PM 34.0894 -77.1458 203° Southwest 439 505 36,000  Level Jacksonville Center
12:06PM 33.9772 -77.2033 204° Southwest 434 499 36,000  Level Jacksonville Center
12:07PM 33.8714 -77.2600 203° Southwest 429 494 36,100  Climbing Jacksonville Center
12:08PM 33.7611 -77.3172 203° Southwest 429 494 36,000 -60 Descending Jacksonville Center
12:09PM 33.6531 -77.3714 204° Southwest 429 494 36,000  Level Jacksonville Center
12:10PM 33.5450 -77.4281 204° Southwest 429 494 36,000  Level Jacksonville Center
12:11PM 33.4389 -77.4842 203° Southwest 429 494 36,000  Level Jacksonville Center
12:12PM 33.3347 -77.5378 204° Southwest 429 494 36,000  Level Jacksonville Center
12:13PM 33.2408 -77.5881 204° Southwest 429 494 36,000  Level Jacksonville Center
12:14PM 33.1367 -77.6439 203° Southwest 424 488 36,000  Level Jacksonville Center
12:15PM 33.0306 -77.6972 204° Southwest 419 482 36,000  Level Jacksonville Center
12:16PM 32.9242 -77.7528 203° Southwest 419 482 36,000  Level Jacksonville Center
12:17PM 32.8178 -77.8058 203° Southwest 419 482 36,000  Level Jacksonville Center
12:18PM 32.7114 -77.8586 205° Southwest 414 476 36,000  Level Jacksonville Center
12:19PM 32.6053 -77.9164 203° Southwest 414 476 36,000  Level Jacksonville Center
12:20PM 32.5008 -77.9689 204° Southwest 414 476 36,000  Level Jacksonville Center
12:21PM 32.3944 -78.0239 203° Southwest 414 476 36,000  Level Jacksonville Center
12:22PM 32.2919 -78.0761 204° Southwest 414 476 36,000  Level Jacksonville Center
12:23PM 32.1878 -78.1306 200° South 414 476 36,000  Level Jacksonville Center
12:24PM 32.0828 -78.1753 206° Southwest 409 471 36,000  Level Jacksonville Center
12:25PM 31.9806 -78.2344 202° Southwest 409 471 36,000  Level Jacksonville Center
12:26PM 31.8700 -78.2864 203° Southwest 409 471 36,000  Level Jacksonville Center
12:27PM 31.7653 -78.3381 202° Southwest 421 484 36,000  Level Jacksonville Center
12:28PM 31.6586 -78.3897 202° Southwest 416 479 36,000  Level Jacksonville Center
12:29PM 31.5581 -78.4383 204° Southwest 399 459 36,000  Level Jacksonville Center
12:30PM 31.4533 -78.4922 203° Southwest 399 459 36,000  Level Jacksonville Center
12:31PM 31.3486 -78.5433 201° Southwest 405 466 36,000 -60 Level Jacksonville Center
12:32PM 31.2481 -78.5892 202° Southwest 405 466 35,900  Descending Jacksonville Center
12:33PM 31.1472 -78.6375 205° Southwest 401 461 36,000  Climbing Jacksonville Center
12:34PM 31.0428 -78.6956 200° South 410 472 36,000 -60 Level Jacksonville Center
12:35PM 30.9297 -78.7442 202° Southwest 421 484 35,900  Descending Jacksonville Center
12:36PM 30.8228 -78.7950 204° Southwest 428 493 36,000  Climbing Jacksonville Center
12:38PM 30.6683 -78.8733 203° Southwest 392 451 36,000  Level Miami Center
12:39PM 30.5633 -78.9244 203° Southwest 397 457 36,000  Level Miami Center
12:40PM 30.4606 -78.9753 196° South 396 456 36,000  Level Miami Center
12:41PM 30.3517 -79.0117 195° South 403 464 36,000  Level Miami Center
12:42PM 30.2469 -79.0431 192° South 403 464 36,000 -60 Level Miami Center
12:43PM 30.1403 -79.0697 193° South 397 457 35,900 -60 Descending Miami Center
12:44PM 30.0272 -79.1008 191° South 403 464 35,900  Level Miami Center
12:45PM 29.9119 -79.1272 194° South 397 457 36,000 60 Climbing Miami Center
12:46PM 29.8031 -79.1583 193° South 398 458 36,100  Climbing Miami Center
12:47PM 29.6922 -79.1872 195° South 410 472 36,000 -60 Descending Miami Center
12:48PM 29.5853 -79.2206 191° South 404 465 36,000  Level Miami Center
12:49PM 29.4744 -79.2444 194° South 411 473 36,000  Level Miami Center
12:50PM 29.3633 -79.2753 221° Southwest 411 473 36,000  Level Miami Center
12:51PM 29.2806 -79.3592 235° Southwest 398 458 36,000  Level Miami Center
12:52PM 29.2139 -79.4694 236° Southwest 398 458 36,000  Level Miami Center
12:53PM 29.1514 -79.5772 236° Southwest 408 470 36,000  Level Miami Center
12:54PM 29.0867 -79.6850 236° Southwest 414 476 36,000  Level Miami Center
12:55PM 29.0239 -79.7925 235° Southwest 419 482 36,000  Level Miami Center
12:56PM 28.9633 -79.8928 237° Southwest 407 468 36,000  Level Miami Center
12:57PM 28.9069 -79.9933 214° Southwest 393 452 36,000  Level Miami Center
12:58PM 28.8200 -80.0594 172° South 377 434 36,000  Level Miami Center
12:59PM 28.7078 -80.0419 170° South 362 417 36,000 -6,000 Level Miami Center
01:00PM 28.5914 -80.0197 169° South 397 457 24,000 -1,080 Descending Miami Center
01:01PM 28.4897 -79.9981 171° South 424 488 33,900 4,500 Climbing Miami Center
01:02PM 28.3586 -79.9756 170° South 438 504 33,100 -900 Descending Miami Center
01:03PM 28.2403 -79.9511 170° South 438 504 32,100 -1,020 Descending Miami Center
01:04PM 28.1217 -79.9267 171° South 438 504 31,100 -960 Descending Miami Center
01:05PM 28.0136 -79.9072 171° South 445 512 30,200 -900 Descending Miami Center
01:06PM 27.8908 -79.8850 170° South 445 512 29,300 -1,020 Descending Miami Center
01:07PM 27.7619 -79.8581 171° South 433 498 28,200 -1,500 Descending Miami Center
01:08PM 27.6414 -79.8364 171° South 438 504 26,300 -2,100 Descending Miami Center
01:09PM 27.5208 -79.8144 171° South 451 519 24,100 -1,320 Descending Miami Center
01:10PM 27.4083 -79.7950 172° South 451 519 23,700 -660 Descending Miami Center
01:11PM 27.2897 -79.7758 171° South 445 512 22,800 -1,020 Descending Miami Center
01:12PM 27.1525 -79.7514 172° South 445 512 21,700 -1,080 Descending Miami Center
01:13PM 27.0339 -79.7319 172° South 445 512 20,700 -1,500 Descending Miami Center
01:14PM 26.9172 -79.7128 171° South 439 505 18,800 -2,280 Descending Miami Center
01:15PM 26.8153 -79.6942 187° South 427 491 16,200 -2,580 Descending Miami Center
01:16PM 26.6939 -79.7119 203° Southwest 390 449 13,600 -3,060 Descending Miami Center
01:17PM 26.6094 -79.7519 203° Southwest 382 440 10,100 -2,340 Descending Miami Center
01:18PM 26.5272 -79.7917 203° Southwest 361 415 9,000 -1,080 Descending Miami Center
01:19PM 26.4469 -79.8292 204° Southwest 299 344 8,000 -540 Descending Miami Center
01:20PM 26.3881 -79.8578 220° Southwest 273 314 8,000 -180 Level Miami Center
01:21PM 26.3283 -79.9142 220° Southwest 262 302 7,700 -420 Descending Miami Center
01:22PM 26.2772 -79.9614 220° Southwest 262 302 7,200 -540 Descending Miami Center
01:23PM 26.2217 -80.0133 228° Southwest 262 302 6,700 -540 Descending Miami Center
01:24PM 26.1744 -80.0722 255° West 267 307 6,200 -420 Descending Miami Center
01:25PM 26.1539 -80.1550 267° West 256 295 5,900 -360 Descending Miami Center
01:26PM 26.1494 -80.2636 270° West 241 277 5,500 -720 Descending Miami Center
01:27PM 26.1497 -80.3400 257° West 242 278 4,300 -1,140 Descending Miami Center
01:28PM 26.1356 -80.4067 151° Southeast 226 260 3,200 -1,140 Descending Miami Center
01:29PM 26.0922 -80.3800 108° East 174 200 1,900 -660 Descending Miami Center
01:30PM 26.0747 -80.3217 88° East 178 205 1,800 -120 Descending Miami Center
01:31PM 26.0761 -80.2708 92° East 173 199 1,700 -420 Descending Miami Center
01:32PM 26.0750 -80.2314 92° East 125 144 1,100 -660 Descending Miami Center
01:33PM 26.0736 -80.1922 92° East 125 144 400 -720 Descending Miami Center